Time;durP1;ratioP1;P1;durP2;ratioP2;P2;SDS_P1;SDS_P2;PMS_P1;PMS_P2;Temp;Humidity;BMP_temperature;BMP_pressure;BME280_temperature;BME280_humidity;BME280_pressure;Samples;Min_cycle;Max_cycle;Signal;HPM_P1;HPM_P2
2021/10/19 00:00:20;;;;;;;31.55;18.45;;;;;;;14.22;84.19;101717.06;5080770;28;20058;-48
2021/10/19 00:02:46;;;;;;;29.45;17.80;;;;;;;14.25;84.17;101713.13;5073167;28;20458;-46
2021/10/19 00:05:13;;;;;;;26.33;16.60;;;;;;;14.28;84.20;101720.88;5073861;28;20025;-48
2021/10/19 00:07:38;;;;;;;30.33;17.47;;;;;;;14.31;84.29;101716.97;5068848;28;20032;-48
2021/10/19 00:10:05;;;;;;;27.67;16.83;;;;;;;14.34;84.34;101722.84;5053924;28;20491;-48
2021/10/19 00:12:31;;;;;;;29.77;15.85;;;;;;;14.36;84.33;101717.25;5065540;28;20059;-48
2021/10/19 00:14:56;;;;;;;25.45;15.77;;;;;;;14.36;84.27;101717.25;5073706;28;20060;-45
2021/10/19 00:17:22;;;;;;;24.13;15.75;;;;;;;14.37;84.37;101708.09;5073602;28;20418;-48
2021/10/19 00:19:47;;;;;;;28.20;16.42;;;;;;;14.37;84.61;101705.38;5073574;28;20111;-48
2021/10/19 00:22:12;;;;;;;25.17;16.00;;;;;;;14.37;85.21;101703.50;5071159;28;20020;-50
2021/10/19 00:24:38;;;;;;;30.38;17.38;;;;;;;14.31;86.34;101700.72;5053484;28;20033;-48
2021/10/19 00:27:04;;;;;;;27.65;17.40;;;;;;;14.25;87.28;101686.91;5053385;28;20216;-50
2021/10/19 00:29:30;;;;;;;29.30;18.60;;;;;;;14.19;88.14;101694.91;5053414;28;20029;-50
2021/10/19 00:31:56;;;;;;;30.25;18.88;;;;;;;14.14;88.61;101690.06;5053231;28;20029;-47
2021/10/19 00:34:22;;;;;;;37.88;20.42;;;;;;;14.07;89.44;101696.41;5070454;28;20032;-47
2021/10/19 00:36:47;;;;;;;32.65;20.75;;;;;;;13.97;89.82;101689.38;5071690;28;20041;-46
2021/10/19 00:39:13;;;;;;;32.88;19.98;;;;;;;13.94;90.30;101694.31;5073371;28;20074;-50
2021/10/19 00:41:38;;;;;;;37.47;23.50;;;;;;;13.92;90.79;101686.38;5071466;28;20031;-48
2021/10/19 00:44:04;;;;;;;42.60;23.92;;;;;;;13.88;91.05;101695.91;5073155;28;20029;-48
2021/10/19 00:46:29;;;;;;;39.40;24.60;;;;;;;13.86;91.45;101687.13;5072722;28;20056;-49
2021/10/19 00:48:55;;;;;;;40.58;24.45;;;;;;;13.86;91.66;101681.69;5072870;28;20387;-49
2021/10/19 00:51:20;;;;;;;46.03;26.33;;;;;;;13.80;92.16;101680.56;5073005;28;20127;-50
2021/10/19 00:53:46;;;;;;;50.40;27.15;;;;;;;13.79;92.43;101676.16;5055181;28;20024;-48
2021/10/19 00:56:11;;;;;;;50.47;27.67;;;;;;;13.79;92.73;101672.63;5051716;28;20228;-47
2021/10/19 00:58:38;;;;;;;52.25;28.55;;;;;;;13.79;92.88;101661.81;5052800;28;20032;-48
2021/10/19 01:01:04;;;;;;;53.45;29.13;;;;;;;13.79;93.11;101668.03;5060745;28;20353;-49
2021/10/19 01:03:29;;;;;;;61.33;31.02;;;;;;;13.77;93.42;101659.28;5058422;28;20035;-48
2021/10/19 01:05:54;;;;;;;58.88;31.35;;;;;;;13.84;93.47;101652.09;5052986;28;20021;-50
2021/10/19 01:08:20;;;;;;;55.90;31.17;;;;;;;13.83;93.17;101650.44;5052747;28;20369;-48
2021/10/19 01:10:45;;;;;;;59.13;32.50;;;;;;;13.81;93.42;101648.94;5051632;28;20033;-48
2021/10/19 01:13:11;;;;;;;62.25;33.38;;;;;;;13.78;93.71;101642.03;5063641;28;20426;-48
2021/10/19 01:15:36;;;;;;;60.85;33.63;;;;;;;13.80;93.81;101655.38;5052609;28;20476;-47
2021/10/19 01:18:02;;;;;;;56.85;32.22;;;;;;;13.79;93.80;101643.69;5070105;28;20090;-50
2021/10/19 01:20:32;;;;;;;63.58;34.83;;;;;;;13.79;93.88;101637.44;5072537;28;20033;-48
2021/10/19 01:22:58;;;;;;;61.63;35.65;;;;;;;13.79;93.94;101632.88;5063754;28;20043;-50
2021/10/19 01:25:26;;;;;;;66.53;35.05;;;;;;;13.78;93.87;101631.22;5052465;28;20025;-49
2021/10/19 01:28:00;;;;;;;62.00;33.50;;;;;;;13.78;93.93;101625.78;5052515;28;20103;-49
2021/10/19 01:30:26;;;;;;;66.53;34.60;;;;;;;13.82;93.98;101620.84;5052564;28;20128;-50
2021/10/19 01:32:52;;;;;;;62.28;35.30;;;;;;;13.82;93.62;101619.00;5059633;28;20459;-47
2021/10/19 01:35:17;;;;;;;62.20;35.67;;;;;;;13.84;93.77;101622.34;5053847;28;20052;-46
2021/10/19 01:37:43;;;;;;;58.53;35.72;;;;;;;13.82;93.81;101621.72;5052146;28;20087;-49
2021/10/19 01:40:11;;;;;;;62.38;36.30;;;;;;;13.78;93.92;101614.97;5052430;28;20025;-46
2021/10/19 01:42:36;;;;;;;67.43;36.75;;;;;;;13.77;94.07;101617.84;5062811;28;20487;-46
2021/10/19 01:45:03;;;;;;;63.47;36.15;;;;;;;13.76;94.21;101614.31;5071133;28;20056;-46
2021/10/19 01:47:28;;;;;;;67.75;38.35;;;;;;;13.77;94.39;101618.72;5072616;28;20032;-48
2021/10/19 01:49:54;;;;;;;68.35;37.88;;;;;;;13.77;94.49;101613.31;5072396;28;20087;-48
2021/10/19 01:52:19;;;;;;;66.07;37.50;;;;;;;13.80;94.44;101607.53;5063369;28;20036;-48
2021/10/19 01:54:45;;;;;;;60.35;35.90;;;;;;;13.86;94.22;101605.09;5052178;28;20032;-49
2021/10/19 01:57:10;;;;;;;64.95;37.70;;;;;;;13.89;93.88;101604.72;5052607;28;20021;-47
2021/10/19 01:59:35;;;;;;;63.10;38.17;;;;;;;13.88;94.01;101595.78;5052167;28;20108;-48
2021/10/19 02:02:00;;;;;;;65.22;38.03;;;;;;;13.90;94.07;101595.56;5067193;28;20056;-49
2021/10/19 02:04:26;;;;;;;70.20;37.80;;;;;;;13.91;93.91;101597.28;5076589;28;20055;-48
2021/10/19 02:06:51;;;;;;;66.55;40.55;;;;;;;13.93;93.95;101597.91;5092416;28;20075;-49
2021/10/19 02:09:16;;;;;;;69.60;40.42;;;;;;;13.95;93.85;101598.56;5092306;28;20533;-47
2021/10/19 02:11:42;;;;;;;70.53;43.03;;;;;;;13.96;93.96;101594.84;5086221;28;20059;-50
2021/10/19 02:14:07;;;;;;;68.82;41.33;;;;;;;13.98;93.95;101592.78;5068658;28;20066;-49
2021/10/19 02:16:32;;;;;;;70.85;42.28;;;;;;;13.97;93.96;101591.09;5051922;28;20090;-49
2021/10/19 02:18:58;;;;;;;71.70;43.67;;;;;;;13.98;94.15;101587.34;5052042;28;20112;-50
2021/10/19 02:21:23;;;;;;;77.40;43.95;;;;;;;13.96;94.18;101590.28;5052058;28;20025;-48
2021/10/19 02:23:48;;;;;;;74.47;44.15;;;;;;;13.97;94.24;101581.13;5068192;28;20052;-48
2021/10/19 02:26:14;;;;;;;77.57;44.63;;;;;;;13.97;94.43;101578.41;5071911;28;20107;-47
2021/10/19 02:28:39;;;;;;;76.72;44.72;;;;;;;13.99;94.23;101584.47;5075663;28;20108;-49
2021/10/19 02:31:06;;;;;;;74.22;44.17;;;;;;;13.97;94.32;101589.22;5080743;28;20060;-47
2021/10/19 02:33:32;;;;;;;80.47;45.13;;;;;;;13.98;94.48;101581.94;5071246;28;20031;-49
2021/10/19 02:35:57;;;;;;;79.10;45.28;;;;;;;13.98;94.47;101592.78;5071617;28;20032;-46
2021/10/19 02:38:22;;;;;;;83.13;45.92;;;;;;;13.99;94.64;101586.34;5071905;28;20056;-50
2021/10/19 02:40:48;;;;;;;79.63;45.17;;;;;;;14.00;94.65;101585.31;5071828;28;20085;-50
2021/10/19 02:43:15;;;;;;;80.07;45.67;;;;;;;14.02;94.65;101575.97;5060153;28;20033;-51
2021/10/19 02:45:40;;;;;;;77.65;45.08;;;;;;;14.03;94.54;101561.44;5054767;28;20021;-47
2021/10/19 02:48:05;;;;;;;79.40;45.15;;;;;;;14.05;94.71;101556.66;5055324;28;20036;-48
2021/10/19 02:50:30;;;;;;;71.38;43.03;;;;;;;14.11;94.53;101554.22;5074056;28;20074;-50
2021/10/19 02:52:56;;;;;;;75.47;45.00;;;;;;;14.13;94.31;101544.91;5066685;28;20021;-48
2021/10/19 02:55:21;;;;;;;75.13;44.10;;;;;;;14.11;94.47;101540.69;5055368;28;20029;-47
2021/10/19 02:57:46;;;;;;;74.88;44.83;;;;;;;14.12;94.57;101534.28;5061501;28;20126;-48
2021/10/19 03:00:12;;;;;;;75.35;44.50;;;;;;;14.12;94.46;101532.41;5077453;28;20029;-48
2021/10/19 03:02:38;;;;;;;75.28;44.35;;;;;;;14.12;94.75;101528.84;5074367;28;20082;-49
2021/10/19 03:05:04;;;;;;;74.13;44.92;;;;;;;14.11;94.96;101544.22;5075041;28;20028;-49
2021/10/19 03:07:29;;;;;;;74.97;44.72;;;;;;;14.12;95.19;101540.53;5075079;28;20036;-48
2021/10/19 03:09:54;;;;;;;79.68;43.35;;;;;;;14.11;95.15;101530.69;5075114;28;20504;-47
2021/10/19 03:12:19;;;;;;;78.22;45.60;;;;;;;14.12;95.29;101529.69;5078923;28;20048;-47
2021/10/19 03:14:45;;;;;;;77.20;46.47;;;;;;;14.10;95.46;101526.31;5074727;28;20418;-46
2021/10/19 03:17:10;;;;;;;80.90;46.28;;;;;;;14.10;95.52;101520.91;5075118;28;20481;-48
2021/10/19 03:19:36;;;;;;;83.22;47.53;;;;;;;14.11;95.62;101528.00;5074975;28;20020;-47
2021/10/19 03:22:01;;;;;;;79.10;45.80;;;;;;;14.12;95.78;101513.44;5074900;28;20021;-47
2021/10/19 03:24:26;;;;;;;83.97;47.35;;;;;;;14.12;95.73;101526.16;5074709;28;20024;-49
2021/10/19 03:26:52;;;;;;;83.60;47.22;;;;;;;14.12;95.79;101540.53;5056397;28;20044;-47
2021/10/19 03:29:18;;;;;;;82.22;47.95;;;;;;;14.11;95.82;101538.81;5054669;28;20053;-47
2021/10/19 03:31:43;;;;;;;89.10;47.95;;;;;;;14.10;96.08;101539.88;5054757;28;20029;-48
2021/10/19 03:34:09;;;;;;;90.90;48.35;;;;;;;14.11;96.06;101540.69;5053349;28;20028;-49
2021/10/19 03:36:34;;;;;;;81.72;46.97;;;;;;;14.09;96.30;101543.59;5054653;28;20053;-50
2021/10/19 03:38:59;;;;;;;78.30;42.53;;;;;;;14.11;96.29;101546.94;5055753;28;20025;-48
2021/10/19 03:41:25;;;;;;;72.15;41.10;;;;;;;14.11;96.24;101543.41;5054515;28;20028;-51
2021/10/19 03:43:50;;;;;;;79.88;43.25;;;;;;;14.11;96.39;101544.22;5054229;28;20025;-49
2021/10/19 03:46:15;;;;;;;76.78;41.17;;;;;;;14.11;96.53;101544.22;5067873;28;20047;-50
2021/10/19 03:48:41;;;;;;;81.90;43.13;;;;;;;14.11;96.47;101549.66;5074181;28;20096;-48
2021/10/19 03:51:06;;;;;;;80.18;42.05;;;;;;;14.11;96.85;101546.09;5074297;28;20439;-48
2021/10/19 03:53:31;;;;;;;80.95;41.40;;;;;;;14.09;96.86;101546.31;5074166;28;20055;-49
2021/10/19 03:55:57;;;;;;;81.30;40.95;;;;;;;14.10;96.95;101542.56;5074226;28;20021;-51
2021/10/19 03:58:22;;;;;;;78.80;40.22;;;;;;;14.12;96.92;101542.41;5057775;28;20403;-52
2021/10/19 04:00:48;;;;;;;76.95;39.33;;;;;;;14.11;97.03;101544.22;5056122;28;20376;-53
2021/10/19 04:03:13;;;;;;;78.85;40.58;;;;;;;14.10;96.89;101542.56;5053973;28;20025;-54
2021/10/19 04:05:38;;;;;;;75.15;38.53;;;;;;;14.14;97.09;101548.44;5053992;28;20036;-53
2021/10/19 04:08:04;;;;;;;77.25;38.90;;;;;;;14.14;97.17;101554.72;5053771;28;20441;-50
2021/10/19 04:10:29;;;;;;;78.25;39.95;;;;;;;14.12;97.08;101548.63;5054499;28;20464;-52
2021/10/19 04:12:54;;;;;;;84.28;40.38;;;;;;;14.10;97.47;101542.56;5073997;28;20043;-49
2021/10/19 04:15:20;;;;;;;78.80;39.45;;;;;;;14.13;97.43;101535.94;5073743;28;20417;-50
2021/10/19 04:17:45;;;;;;;79.07;38.40;;;;;;;14.10;97.40;101534.44;5067170;28;20159;-48
2021/10/19 04:20:11;;;;;;;82.45;40.95;;;;;;;14.11;97.50;101536.13;5053598;28;20111;-50
2021/10/19 04:22:36;;;;;;;73.97;37.20;;;;;;;14.11;97.55;101533.41;5053738;28;20033;-49
2021/10/19 04:25:02;;;;;;;73.60;36.13;;;;;;;14.14;97.62;101559.25;5048758;28;20035;-50
2021/10/19 04:27:27;;;;;;;81.03;37.22;;;;;;;14.13;97.67;101552.19;5070493;28;20496;-47
2021/10/19 04:29:53;;;;;;;75.65;36.28;;;;;;;14.13;97.82;101550.31;5072269;28;20028;-48
2021/10/19 04:32:18;;;;;;;70.22;36.63;;;;;;;14.13;97.45;101536.78;5071711;28;20036;-46
2021/10/19 04:34:44;;;;;;;76.40;35.47;;;;;;;14.17;97.80;101543.50;5070967;28;20536;-47
2021/10/19 04:37:10;;;;;;;72.30;35.35;;;;;;;14.18;97.73;101542.47;5072240;28;20543;-49
2021/10/19 04:39:35;;;;;;;70.93;34.05;;;;;;;14.21;97.96;101528.53;5071884;28;20093;-46
2021/10/19 04:42:01;;;;;;;67.80;34.92;;;;;;;14.20;98.02;101529.59;5079160;28;20031;-47
2021/10/19 04:44:26;;;;;;;74.03;34.50;;;;;;;14.22;97.92;101522.13;5071803;28;20032;-47
2021/10/19 04:46:51;;;;;;;78.63;35.55;;;;;;;14.22;98.04;101519.41;5072297;28;20101;-49
2021/10/19 04:49:17;;;;;;;83.82;38.60;;;;;;;14.23;97.96;101526.50;5071860;28;20112;-46
2021/10/19 04:51:42;;;;;;;85.85;39.88;;;;;;;14.25;98.00;101510.91;5071077;28;20479;-48
2021/10/19 04:54:08;;;;;;;90.72;38.90;;;;;;;14.25;98.02;101510.91;5072067;28;20500;-48
2021/10/19 04:56:33;;;;;;;91.72;40.50;;;;;;;14.28;98.27;101510.53;5069748;28;20032;-48
2021/10/19 04:58:59;;;;;;;92.70;40.20;;;;;;;14.28;98.33;101509.69;5071979;28;20536;-48
2021/10/19 05:01:25;;;;;;;88.47;41.15;;;;;;;14.29;98.35;101508.66;5070923;28;20060;-47
2021/10/19 05:03:51;;;;;;;96.60;41.88;;;;;;;14.28;98.20;101496.97;5071652;28;20387;-50
2021/10/19 05:06:16;;;;;;;91.53;42.67;;;;;;;14.30;98.19;101502.22;5069818;28;20024;-48
2021/10/19 05:08:42;;;;;;;96.32;43.65;;;;;;;14.31;98.39;101506.59;5070905;28;20514;-48
2021/10/19 05:11:07;;;;;;;100.00;44.22;;;;;;;14.32;98.34;101512.84;5072089;28;20487;-46
2021/10/19 05:13:32;;;;;;;107.82;43.03;;;;;;;14.34;98.55;101505.38;5070782;28;20115;-50
2021/10/19 05:15:58;;;;;;;111.15;45.75;;;;;;;14.34;98.40;101499.97;5070526;28;20027;-47
2021/10/19 05:18:23;;;;;;;112.63;44.60;;;;;;;14.36;98.40;101495.19;5070652;28;20051;-48
2021/10/19 05:20:48;;;;;;;103.10;43.85;;;;;;;14.39;98.44;101500.22;5072373;28;20395;-49
2021/10/19 05:23:14;;;;;;;124.78;46.28;;;;;;;14.39;98.39;101500.22;5058153;28;20079;-49
2021/10/19 05:25:39;;;;;;;117.07;46.75;;;;;;;14.39;98.46;101500.22;5052422;28;20507;-46
2021/10/19 05:28:05;;;;;;;104.15;45.00;;;;;;;14.39;98.76;101502.94;5052574;28;20452;-50
2021/10/19 05:30:30;;;;;;;118.53;48.17;;;;;;;14.39;98.57;101508.34;5083991;28;20028;-48
2021/10/19 05:32:55;;;;;;;126.70;47.75;;;;;;;14.40;98.54;101507.31;5062620;28;20033;-48
2021/10/19 05:35:21;;;;;;;130.05;49.28;;;;;;;14.41;98.69;101503.59;5054539;28;20045;-47
2021/10/19 05:37:46;;;;;;;121.78;47.35;;;;;;;14.43;98.51;101512.38;5057931;28;20140;-47
2021/10/19 05:40:11;;;;;;;126.57;49.95;;;;;;;14.43;98.76;101509.66;5071210;28;20391;-50
2021/10/19 05:42:37;;;;;;;118.07;49.00;;;;;;;14.46;98.79;101511.97;5072214;28;20539;-48
2021/10/19 05:45:04;;;;;;;126.22;50.25;;;;;;;14.48;98.79;101509.91;5064105;28;20063;-50
2021/10/19 05:47:30;;;;;;;125.93;48.55;;;;;;;14.49;98.90;101509.72;5062869;28;20387;-47
2021/10/19 05:49:55;;;;;;;116.47;48.70;;;;;;;14.52;98.95;101511.22;5066742;28;20103;-47
2021/10/19 05:52:20;;;;;;;124.15;48.45;;;;;;;14.54;98.77;101516.47;5051911;28;20033;-47
2021/10/19 05:54:45;;;;;;;121.00;47.97;;;;;;;14.55;99.02;101508.13;5058888;28;20024;-48
2021/10/19 05:57:11;;;;;;;116.70;46.28;;;;;;;14.54;98.90;101489.38;5070050;28;20075;-49
2021/10/19 05:59:36;;;;;;;114.40;46.42;;;;;;;14.55;98.95;101486.47;5063429;28;20036;-47
2021/10/19 06:02:03;;;;;;;114.32;45.55;;;;;;;14.54;98.92;101498.34;5052398;28;20036;-49
2021/10/19 06:04:28;;;;;;;121.78;45.40;;;;;;;14.54;98.78;101500.22;5064525;28;20024;-46
2021/10/19 06:06:56;;;;;;;119.13;47.70;;;;;;;14.54;98.97;101501.06;5066637;28;20388;-47
2021/10/19 06:09:21;;;;;;;126.55;48.08;;;;;;;14.55;99.06;101493.75;5059513;28;20033;-49
2021/10/19 06:11:47;;;;;;;130.07;50.10;;;;;;;14.55;98.97;101491.88;5060342;28;20043;-49
2021/10/19 06:14:12;;;;;;;134.20;48.72;;;;;;;14.56;99.27;101493.59;5071279;28;20029;-47
2021/10/19 06:16:37;;;;;;;127.32;47.40;;;;;;;14.60;99.29;101504.88;5066216;28;20364;-47
2021/10/19 06:19:03;;;;;;;127.88;47.78;;;;;;;14.58;99.18;101501.50;5068780;28;20044;-47
2021/10/19 06:21:28;;;;;;;134.40;48.20;;;;;;;14.61;99.35;101495.69;5075786;28;20017;-48
2021/10/19 06:23:53;;;;;;;129.50;48.25;;;;;;;14.61;99.41;101501.13;5063093;28;20388;-54
2021/10/19 06:26:19;;;;;;;133.52;48.90;;;;;;;14.62;99.33;101502.81;5065851;28;20047;-47
2021/10/19 06:28:45;;;;;;;131.55;47.35;;;;;;;14.62;99.39;101494.69;5063401;28;20048;-45
2021/10/19 06:31:10;;;;;;;121.63;47.13;;;;;;;14.64;99.45;101489.88;5066390;28;20025;-47
2021/10/19 06:33:36;;;;;;;115.32;43.30;;;;;;;14.65;99.47;101488.88;5068684;28;20028;-48
2021/10/19 06:36:03;;;;;;;125.75;44.15;;;;;;;14.64;99.65;101493.47;5073560;28;20417;-49
2021/10/19 06:38:28;;;;;;;115.47;43.40;;;;;;;14.66;99.60;101496.78;5061688;28;20053;-48
2021/10/19 06:40:54;;;;;;;113.50;43.75;;;;;;;14.68;99.55;101496.63;5065947;28;20048;-47
2021/10/19 06:43:19;;;;;;;107.70;42.22;;;;;;;14.68;99.75;101497.44;5071531;28;20028;-47
2021/10/19 06:45:44;;;;;;;109.32;40.40;;;;;;;14.69;99.61;101501.84;5061026;28;20036;-47
2021/10/19 06:48:10;;;;;;;110.13;41.05;;;;;;;14.70;99.63;101506.22;5072633;28;20043;-48
2021/10/19 06:50:36;;;;;;;108.53;40.72;;;;;;;14.71;99.64;101505.19;5054787;28;20025;-47
2021/10/19 06:53:01;;;;;;;112.30;41.70;;;;;;;14.73;99.70;101515.84;5054787;28;20452;-46
2021/10/19 06:55:27;;;;;;;108.88;40.10;;;;;;;14.75;99.59;101512.94;5054455;28;20121;-47
2021/10/19 06:57:52;;;;;;;113.30;40.97;;;;;;;14.75;99.63;101515.66;5055618;28;20025;-47
2021/10/19 07:00:18;;;;;;;110.00;40.72;;;;;;;14.77;99.61;101516.28;5069053;28;20032;-46
2021/10/19 07:02:45;;;;;;;106.25;39.45;;;;;;;14.81;99.73;101507.56;5074656;28;20052;-47
2021/10/19 07:05:10;;;;;;;99.18;37.67;;;;;;;14.81;99.96;101506.75;5074709;28;20365;-45
2021/10/19 07:07:39;;;;;;;101.13;36.83;;;;;;;14.83;99.73;101504.69;5074731;28;20094;-46
2021/10/19 07:10:05;;;;;;;95.22;36.13;;;;;;;14.85;99.94;101505.31;5074496;28;20032;-47
2021/10/19 07:12:30;;;;;;;105.53;35.90;;;;;;;14.86;99.87;101507.84;5074765;28;20024;-46
2021/10/19 07:14:56;;;;;;;94.68;35.60;;;;;;;14.88;99.41;101508.50;5064652;28;20120;-49
2021/10/19 07:17:21;;;;;;;95.30;34.75;;;;;;;14.89;99.77;101510.16;5054431;28;20018;-48
2021/10/19 07:19:47;;;;;;;101.97;36.72;;;;;;;14.91;99.96;101508.09;5054386;28;20032;-51
2021/10/19 07:22:13;;;;;;;99.88;35.25;;;;;;;14.94;99.91;101506.88;5059311;28;20048;-49
2021/10/19 07:24:39;;;;;;;88.35;33.20;;;;;;;14.97;100.00;101517.31;5067025;28;20171;-48
2021/10/19 07:27:04;;;;;;;97.85;33.28;;;;;;;14.96;99.87;101518.38;5054461;28;20550;-47
2021/10/19 07:29:29;;;;;;;83.95;32.15;;;;;;;14.97;100.00;101516.50;5054253;28;20036;-51
2021/10/19 07:31:54;;;;;;;90.32;34.10;;;;;;;14.99;100.00;101515.25;5054206;28;20032;-47
2021/10/19 07:34:20;;;;;;;96.05;33.63;;;;;;;14.98;100.00;101516.31;5061170;28;20036;-50
2021/10/19 07:36:46;;;;;;;84.78;31.67;;;;;;;15.01;100.00;101513.19;5065919;28;20021;-50
2021/10/19 07:39:12;;;;;;;87.03;30.25;;;;;;;15.05;100.00;101509.03;5062675;28;20071;-48
2021/10/19 07:41:37;;;;;;;80.78;31.27;;;;;;;15.06;100.00;101510.75;5074192;28;20375;-50
2021/10/19 07:44:04;;;;;;;82.85;30.98;;;;;;;15.08;100.00;101507.81;5059625;28;20063;-50
2021/10/19 07:46:29;;;;;;;78.75;29.63;;;;;;;15.07;99.91;101498.84;5054132;28;20017;-52
2021/10/19 07:48:54;;;;;;;88.18;29.90;;;;;;;15.10;100.00;101501.16;5053947;28;20464;-53
2021/10/19 07:51:20;;;;;;;65.65;26.58;;;;;;;15.11;100.00;101502.88;5053985;28;20088;-52
2021/10/19 07:53:45;;;;;;;62.40;25.23;;;;;;;15.13;100.00;101503.47;5067968;28;20032;-51
2021/10/19 07:56:10;;;;;;;61.78;24.92;;;;;;;15.15;100.00;101504.13;5061003;28;20032;-48
2021/10/19 07:58:36;;;;;;;58.58;25.02;;;;;;;15.18;100.00;101502.06;5053767;28;20112;-49
2021/10/19 08:01:02;;;;;;;56.58;23.92;;;;;;;15.20;100.00;101511.69;5060939;28;20036;-49
2021/10/19 08:03:31;;;;;;;61.33;26.63;;;;;;;15.20;100.00;101510.84;5073226;28;20106;-49
2021/10/19 08:05:56;;;;;;;57.58;25.23;;;;;;;15.21;99.97;101507.09;5073854;28;20052;-48
2021/10/19 08:08:21;;;;;;;64.45;26.25;;;;;;;15.23;100.00;101494.19;5073675;28;20515;-47
2021/10/19 08:10:47;;;;;;;65.10;26.27;;;;;;;15.25;99.98;101508.41;5073667;28;20437;-48
2021/10/19 08:13:13;;;;;;;67.45;28.23;;;;;;;15.25;100.00;101505.69;5071986;28;20407;-47
2021/10/19 08:15:39;;;;;;;70.50;29.20;;;;;;;15.28;100.00;101502.56;5072383;28;20399;-49
2021/10/19 08:18:05;;;;;;;66.47;27.88;;;;;;;15.30;99.90;101506.75;5073599;28;20024;-49
2021/10/19 08:20:31;;;;;;;73.05;29.80;;;;;;;15.29;100.00;101499.66;5071713;28;20036;-48
2021/10/19 08:22:56;;;;;;;74.15;30.77;;;;;;;15.32;100.00;101504.69;5071774;28;20028;-47
2021/10/19 08:25:23;;;;;;;77.88;31.00;;;;;;;15.32;99.97;101503.84;5053554;28;20480;-46
2021/10/19 08:27:49;;;;;;;75.65;31.45;;;;;;;15.38;100.00;101497.66;5035111;28;20499;-47
2021/10/19 08:30:17;;;;;;;74.32;31.58;;;;;;;15.35;100.00;101514.31;5072601;28;20020;-47
2021/10/19 08:32:43;;;;;;;76.95;30.58;;;;;;;15.36;100.00;101505.13;5060129;28;20104;-48
2021/10/19 08:35:09;;;;;;;71.10;31.08;;;;;;;15.36;99.90;101499.72;5053076;28;20496;-48
2021/10/19 08:37:35;;;;;;;77.93;31.45;;;;;;;15.36;99.96;101500.53;5053190;28;20480;-47
2021/10/19 08:40:00;;;;;;;70.35;29.27;;;;;;;15.40;100.00;101509.09;5069356;28;20031;-49
2021/10/19 08:42:26;;;;;;;71.05;30.58;;;;;;;15.44;99.97;101491.41;5085056;28;20056;-49
2021/10/19 08:44:51;;;;;;;71.05;30.23;;;;;;;15.45;99.84;101509.34;5072773;28;20455;-50
2021/10/19 08:47:17;;;;;;;72.88;28.52;;;;;;;15.47;99.88;101501.88;5072138;28;20487;-47
2021/10/19 08:49:42;;;;;;;66.78;29.08;;;;;;;15.48;100.00;101498.13;5072155;28;20085;-47
2021/10/19 08:52:08;;;;;;;62.72;29.50;;;;;;;15.54;99.91;101496.50;5056440;28;20079;-48
2021/10/19 08:54:34;;;;;;;70.88;31.50;;;;;;;15.52;100.00;101499.41;5055100;28;20032;-51
2021/10/19 08:56:59;;;;;;;66.93;30.60;;;;;;;15.55;99.94;101500.88;5062164;28;20031;-48
2021/10/19 08:59:25;;;;;;;73.53;30.73;;;;;;;15.55;99.93;101490.84;5080222;28;20036;-50
2021/10/19 09:01:57;;;;;;;77.82;32.97;;;;;;;15.58;100.00;101504.03;5058849;28;20466;-47
2021/10/19 09:04:29;;;;;;;74.63;32.60;;;;;;;15.61;100.00;101508.22;5052421;28;20029;-47
2021/10/19 09:06:55;;;;;;;83.65;33.22;;;;;;;15.63;100.00;101508.03;5052294;28;20158;-48
2021/10/19 09:09:24;;;;;;;73.75;32.88;;;;;;;15.68;100.00;101513.69;5052574;28;20075;-47
2021/10/19 09:11:51;;;;;;;72.78;32.97;;;;;;;15.71;100.00;101519.59;5035925;28;20025;-48
2021/10/19 09:14:19;;;;;;;75.57;32.90;;;;;;;15.73;100.00;101516.69;5072859;28;20028;-48
2021/10/19 09:16:49;;;;;;;72.25;32.55;;;;;;;15.76;100.00;101516.28;5058944;28;20056;-47
2021/10/19 09:19:20;;;;;;;83.10;36.30;;;;;;;15.77;99.95;101518.81;5052123;28;20037;-46
2021/10/19 09:21:47;;;;;;;75.15;34.13;;;;;;;15.79;100.00;101518.59;5052101;28;20052;-50
2021/10/19 09:24:21;;;;;;;79.15;35.38;;;;;;;15.82;100.00;101515.47;5052423;28;20049;-49
2021/10/19 09:26:53;;;;;;;77.07;36.08;;;;;;;15.85;100.00;101511.50;5052369;28;20032;-49
2021/10/19 09:29:18;;;;;;;74.72;34.72;;;;;;;15.91;100.00;101513.44;5060076;28;20391;-47
2021/10/19 09:31:44;;;;;;;77.82;34.47;;;;;;;15.91;100.00;101522.44;5065338;28;20021;-46
2021/10/19 09:34:13;;;;;;;76.80;35.00;;;;;;;15.94;100.00;101513.88;5062313;28;20119;-49
2021/10/19 09:36:38;;;;;;;75.60;35.20;;;;;;;15.96;100.00;101514.50;5092308;28;20028;-49
2021/10/19 09:39:04;;;;;;;73.70;33.47;;;;;;;16.00;100.00;101512.22;5069327;28;20101;-47
2021/10/19 09:41:29;;;;;;;77.57;34.03;;;;;;;16.02;100.00;101508.28;5071875;28;20115;-47
2021/10/19 09:43:56;;;;;;;71.38;33.63;;;;;;;16.08;100.00;101519.38;5075584;28;20056;-50
2021/10/19 09:46:25;;;;;;;65.72;30.58;;;;;;;16.10;100.00;101520.84;5068776;28;20123;-53
2021/10/19 09:48:50;;;;;;;61.95;30.15;;;;;;;16.13;100.00;101511.47;5045087;28;20058;-51
2021/10/19 09:51:16;;;;;;;62.65;31.30;;;;;;;16.15;100.00;101514.81;5065937;28;20029;-54
2021/10/19 09:53:42;;;;;;;57.35;28.95;;;;;;;16.17;100.00;101523.59;5058784;28;20025;-55
2021/10/19 09:56:08;;;;;;;51.55;25.88;;;;;;;16.19;100.00;101513.34;5067563;28;20029;-58
2021/10/19 09:58:35;;;;;;;46.90;24.25;;;;;;;16.20;99.93;101517.75;5058368;28;20028;-55
2021/10/19 10:01:02;;;;;;;44.47;24.17;;;;;;;16.21;99.93;101517.53;5066618;28;20024;-52
2021/10/19 10:03:29;;;;;;;40.40;21.98;;;;;;;16.19;99.85;101524.22;5073443;28;20043;-51
2021/10/19 10:05:55;;;;;;;42.03;21.98;;;;;;;16.20;99.58;101520.47;5073317;28;20019;-48
2021/10/19 10:08:22;;;;;;;41.42;23.33;;;;;;;16.21;99.57;101524.84;5062573;28;20389;-48
2021/10/19 10:10:52;;;;;;;44.47;24.17;;;;;;;16.22;99.54;101507.53;5062314;28;20478;-51
2021/10/19 10:13:17;;;;;;;46.28;24.52;;;;;;;16.23;99.60;101517.34;5057356;28;20043;-52
2021/10/19 10:15:43;;;;;;;47.22;24.33;;;;;;;16.23;99.63;101506.47;5059785;28;20028;-56
2021/10/19 10:18:11;;;;;;;49.85;26.25;;;;;;;16.24;99.57;101517.16;5040577;28;20156;-50
2021/10/19 10:20:37;;;;;;;47.80;25.20;;;;;;;16.26;99.51;101526.97;5063294;28;20455;-52
2021/10/19 10:23:23;;;;;;;46.83;26.17;;;;;;;16.27;99.60;101523.19;5075266;28;20024;-49
2021/10/19 10:25:51;;;;;;;48.67;26.00;;;;;;;16.26;99.63;101516.94;5072770;28;20317;-49
2021/10/19 10:28:30;;;;;;;49.22;27.02;;;;;;;16.33;99.55;101516.97;5066055;28;20032;-47
2021/10/19 10:31:06;;;;;;;53.95;27.08;;;;;;;16.35;99.43;101521.16;5067440;28;20461;-50
2021/10/19 10:33:39;;;;;;;53.13;26.92;;;;;;;16.43;99.61;101517.44;5074710;28;20043;-49
2021/10/19 10:36:07;;;;;;;44.97;25.70;;;;;;;16.45;99.50;101521.59;5074819;28;20398;-51
2021/10/19 10:38:34;;;;;;;45.13;24.80;;;;;;;16.44;99.48;101514.50;5062372;28;20059;-52
2021/10/19 10:41:13;;;;;;;42.92;25.00;;;;;;;16.44;99.34;101517.22;5073927;28;20023;-54
2021/10/19 10:43:39;;;;;;;44.20;22.88;;;;;;;16.44;99.30;101519.94;5077728;28;20075;-56
2021/10/19 10:46:15;;;;;;;42.92;22.80;;;;;;;16.46;99.41;101525.16;5068476;28;20052;-54
2021/10/19 10:48:41;;;;;;;43.22;23.05;;;;;;;16.47;99.24;101524.13;5061266;28;20029;-48
2021/10/19 10:51:08;;;;;;;40.50;22.55;;;;;;;16.48;99.25;101516.78;5064919;28;20412;-50
2021/10/19 10:53:38;;;;;;;38.97;22.50;;;;;;;16.49;99.19;101521.22;5095394;28;20086;-51
2021/10/19 10:56:05;;;;;;;30.25;19.45;;;;;;;16.54;99.26;101521.44;5094096;28;20051;-50
2021/10/19 10:58:34;;;;;;;32.53;19.50;;;;;;;16.55;98.95;101520.38;5085763;28;20055;-51
2021/10/19 11:01:00;;;;;;;29.33;18.33;;;;;;;16.58;98.80;101520.78;5066588;28;20425;-49